sensor_id;sensor_type;location;lat;lon;timestamp;P1;durP1;ratioP1;P2;durP2;ratioP2
6251;SDS011;3159;52.414;9.784;2023-11-21T00:00:43;13.50;;;6.83;;
6251;SDS011;3159;52.414;9.784;2023-11-21T00:03:11;15.23;;;6.87;;
6251;SDS011;3159;52.414;9.784;2023-11-21T00:05:39;12.10;;;6.90;;
6251;SDS011;3159;52.414;9.784;2023-11-21T00:08:08;13.10;;;5.97;;
6251;SDS011;3159;52.414;9.784;2023-11-21T00:10:35;17.10;;;6.10;;
6251;SDS011;3159;52.414;9.784;2023-11-21T00:13:03;10.90;;;6.87;;
6251;SDS011;3159;52.414;9.784;2023-11-21T00:15:30;14.63;;;6.13;;
6251;SDS011;3159;52.414;9.784;2023-11-21T00:17:57;11.57;;;5.90;;
6251;SDS011;3159;52.414;9.784;2023-11-21T00:20:24;14.40;;;6.97;;
6251;SDS011;3159;52.414;9.784;2023-11-21T00:22:51;15.00;;;7.20;;
6251;SDS011;3159;52.414;9.784;2023-11-21T00:25:19;12.80;;;6.77;;
6251;SDS011;3159;52.414;9.784;2023-11-21T00:27:46;12.73;;;7.37;;
6251;SDS011;3159;52.414;9.784;2023-11-21T00:30:13;16.53;;;7.23;;
6251;SDS011;3159;52.414;9.784;2023-11-21T00:32:40;13.17;;;7.50;;
6251;SDS011;3159;52.414;9.784;2023-11-21T00:35:07;13.30;;;7.87;;
6251;SDS011;3159;52.414;9.784;2023-11-21T00:37:34;17.20;;;7.00;;
6251;SDS011;3159;52.414;9.784;2023-11-21T00:40:02;16.10;;;7.33;;
6251;SDS011;3159;52.414;9.784;2023-11-21T00:42:32;13.27;;;7.37;;
6251;SDS011;3159;52.414;9.784;2023-11-21T00:44:59;12.10;;;7.43;;
6251;SDS011;3159;52.414;9.784;2023-11-21T00:47:27;12.53;;;6.87;;
6251;SDS011;3159;52.414;9.784;2023-11-21T00:49:53;14.30;;;7.77;;
6251;SDS011;3159;52.414;9.784;2023-11-21T00:52:22;10.43;;;7.47;;
6251;SDS011;3159;52.414;9.784;2023-11-21T00:54:48;17.57;;;8.83;;
6251;SDS011;3159;52.414;9.784;2023-11-21T00:57:15;11.50;;;7.43;;
6251;SDS011;3159;52.414;9.784;2023-11-21T00:59:43;15.20;;;8.07;;
6251;SDS011;3159;52.414;9.784;2023-11-21T01:02:10;13.50;;;7.47;;
6251;SDS011;3159;52.414;9.784;2023-11-21T01:04:37;16.33;;;8.07;;
6251;SDS011;3159;52.414;9.784;2023-11-21T01:07:04;14.23;;;8.37;;
6251;SDS011;3159;52.414;9.784;2023-11-21T01:09:31;14.20;;;7.90;;
6251;SDS011;3159;52.414;9.784;2023-11-21T01:11:58;14.50;;;8.13;;
6251;SDS011;3159;52.414;9.784;2023-11-21T01:14:26;14.37;;;8.30;;
6251;SDS011;3159;52.414;9.784;2023-11-21T01:16:54;15.60;;;8.37;;
6251;SDS011;3159;52.414;9.784;2023-11-21T01:19:21;15.03;;;8.70;;
6251;SDS011;3159;52.414;9.784;2023-11-21T01:21:48;15.60;;;8.57;;
6251;SDS011;3159;52.414;9.784;2023-11-21T01:24:14;18.13;;;9.13;;
6251;SDS011;3159;52.414;9.784;2023-11-21T01:26:41;17.53;;;9.10;;
6251;SDS011;3159;52.414;9.784;2023-11-21T01:29:08;18.37;;;9.03;;
6251;SDS011;3159;52.414;9.784;2023-11-21T01:31:35;15.30;;;9.37;;
6251;SDS011;3159;52.414;9.784;2023-11-21T01:34:03;14.67;;;9.13;;
6251;SDS011;3159;52.414;9.784;2023-11-21T01:36:30;15.27;;;9.30;;
6251;SDS011;3159;52.414;9.784;2023-11-21T01:38:58;18.57;;;9.03;;
6251;SDS011;3159;52.414;9.784;2023-11-21T01:41:25;15.33;;;9.17;;
6251;SDS011;3159;52.414;9.784;2023-11-21T01:43:53;21.10;;;9.83;;
6251;SDS011;3159;52.414;9.784;2023-11-21T01:46:20;19.47;;;10.07;;
6251;SDS011;3159;52.414;9.784;2023-11-21T01:48:48;14.83;;;9.63;;
6251;SDS011;3159;52.414;9.784;2023-11-21T01:51:16;12.60;;;8.53;;
6251;SDS011;3159;52.414;9.784;2023-11-21T01:53:44;17.10;;;9.67;;
6251;SDS011;3159;52.414;9.784;2023-11-21T01:56:12;17.67;;;9.43;;
6251;SDS011;3159;52.414;9.784;2023-11-21T01:58:39;21.60;;;9.83;;
6251;SDS011;3159;52.414;9.784;2023-11-21T02:01:06;18.23;;;9.93;;
6251;SDS011;3159;52.414;9.784;2023-11-21T02:03:33;19.13;;;9.63;;
6251;SDS011;3159;52.414;9.784;2023-11-21T02:06:00;15.50;;;9.33;;
6251;SDS011;3159;52.414;9.784;2023-11-21T02:08:29;20.80;;;10.50;;
6251;SDS011;3159;52.414;9.784;2023-11-21T02:10:56;18.17;;;10.67;;
6251;SDS011;3159;52.414;9.784;2023-11-21T02:13:23;14.93;;;9.90;;
6251;SDS011;3159;52.414;9.784;2023-11-21T02:15:50;16.37;;;10.47;;
6251;SDS011;3159;52.414;9.784;2023-11-21T02:18:19;17.10;;;11.60;;
6251;SDS011;3159;52.414;9.784;2023-11-21T02:20:47;15.17;;;10.03;;
6251;SDS011;3159;52.414;9.784;2023-11-21T02:23:15;13.70;;;9.20;;
6251;SDS011;3159;52.414;9.784;2023-11-21T02:25:43;19.20;;;10.40;;
6251;SDS011;3159;52.414;9.784;2023-11-21T02:28:09;17.10;;;10.20;;
6251;SDS011;3159;52.414;9.784;2023-11-21T02:30:37;20.90;;;11.43;;
6251;SDS011;3159;52.414;9.784;2023-11-21T02:33:04;21.40;;;11.87;;
6251;SDS011;3159;52.414;9.784;2023-11-21T02:35:32;17.37;;;11.27;;
6251;SDS011;3159;52.414;9.784;2023-11-21T02:37:59;16.97;;;10.97;;
6251;SDS011;3159;52.414;9.784;2023-11-21T02:40:28;17.47;;;11.60;;
6251;SDS011;3159;52.414;9.784;2023-11-21T02:42:55;18.73;;;12.00;;
6251;SDS011;3159;52.414;9.784;2023-11-21T02:45:24;17.83;;;10.53;;
6251;SDS011;3159;52.414;9.784;2023-11-21T02:47:51;18.63;;;11.33;;
6251;SDS011;3159;52.414;9.784;2023-11-21T02:50:21;22.27;;;11.70;;
6251;SDS011;3159;52.414;9.784;2023-11-21T02:52:48;20.17;;;12.23;;
6251;SDS011;3159;52.414;9.784;2023-11-21T02:55:16;20.60;;;11.63;;
6251;SDS011;3159;52.414;9.784;2023-11-21T02:57:44;21.60;;;12.33;;
6251;SDS011;3159;52.414;9.784;2023-11-21T03:00:11;22.53;;;12.53;;
6251;SDS011;3159;52.414;9.784;2023-11-21T03:02:40;22.63;;;11.80;;
6251;SDS011;3159;52.414;9.784;2023-11-21T03:05:07;18.33;;;12.03;;
6251;SDS011;3159;52.414;9.784;2023-11-21T03:07:34;17.43;;;11.93;;
6251;SDS011;3159;52.414;9.784;2023-11-21T03:10:02;21.53;;;12.80;;
6251;SDS011;3159;52.414;9.784;2023-11-21T03:12:30;23.80;;;13.03;;
6251;SDS011;3159;52.414;9.784;2023-11-21T03:14:58;22.50;;;12.97;;
6251;SDS011;3159;52.414;9.784;2023-11-21T03:17:24;22.57;;;13.50;;
6251;SDS011;3159;52.414;9.784;2023-11-21T03:19:51;25.47;;;14.53;;
6251;SDS011;3159;52.414;9.784;2023-11-21T03:22:19;25.87;;;14.43;;
6251;SDS011;3159;52.414;9.784;2023-11-21T03:24:46;23.80;;;13.83;;
6251;SDS011;3159;52.414;9.784;2023-11-21T03:27:13;25.47;;;14.30;;
6251;SDS011;3159;52.414;9.784;2023-11-21T03:29:39;22.80;;;12.33;;
6251;SDS011;3159;52.414;9.784;2023-11-21T03:32:08;25.10;;;14.57;;
6251;SDS011;3159;52.414;9.784;2023-11-21T03:34:34;23.57;;;13.93;;
6251;SDS011;3159;52.414;9.784;2023-11-21T03:37:01;24.30;;;14.47;;
6251;SDS011;3159;52.414;9.784;2023-11-21T03:39:28;22.40;;;13.27;;
6251;SDS011;3159;52.414;9.784;2023-11-21T03:41:55;22.33;;;14.07;;
6251;SDS011;3159;52.414;9.784;2023-11-21T03:44:22;24.83;;;13.37;;
6251;SDS011;3159;52.414;9.784;2023-11-21T03:46:48;24.27;;;15.33;;
6251;SDS011;3159;52.414;9.784;2023-11-21T03:49:16;23.50;;;14.57;;
6251;SDS011;3159;52.414;9.784;2023-11-21T03:51:43;24.93;;;14.67;;
6251;SDS011;3159;52.414;9.784;2023-11-21T03:54:10;25.77;;;15.17;;
6251;SDS011;3159;52.414;9.784;2023-11-21T03:56:37;28.77;;;15.03;;
6251;SDS011;3159;52.414;9.784;2023-11-21T03:59:03;24.60;;;15.00;;
6251;SDS011;3159;52.414;9.784;2023-11-21T04:01:30;22.47;;;14.50;;
6251;SDS011;3159;52.414;9.784;2023-11-21T04:03:58;26.13;;;14.50;;
6251;SDS011;3159;52.414;9.784;2023-11-21T04:06:26;28.13;;;16.13;;
6251;SDS011;3159;52.414;9.784;2023-11-21T04:08:52;28.30;;;16.17;;
6251;SDS011;3159;52.414;9.784;2023-11-21T04:11:19;26.33;;;14.47;;
6251;SDS011;3159;52.414;9.784;2023-11-21T04:13:46;27.93;;;15.93;;
6251;SDS011;3159;52.414;9.784;2023-11-21T04:16:13;29.80;;;15.83;;
6251;SDS011;3159;52.414;9.784;2023-11-21T04:18:40;29.20;;;15.37;;
6251;SDS011;3159;52.414;9.784;2023-11-21T04:21:07;27.97;;;15.93;;
6251;SDS011;3159;52.414;9.784;2023-11-21T04:23:35;23.57;;;14.83;;
6251;SDS011;3159;52.414;9.784;2023-11-21T04:26:02;29.77;;;15.67;;
6251;SDS011;3159;52.414;9.784;2023-11-21T04:28:29;29.57;;;15.97;;
6251;SDS011;3159;52.414;9.784;2023-11-21T04:30:55;27.37;;;15.80;;
6251;SDS011;3159;52.414;9.784;2023-11-21T04:33:22;27.17;;;15.47;;
6251;SDS011;3159;52.414;9.784;2023-11-21T04:35:50;34.83;;;16.93;;
6251;SDS011;3159;52.414;9.784;2023-11-21T04:38:17;25.40;;;15.93;;
6251;SDS011;3159;52.414;9.784;2023-11-21T04:40:45;28.53;;;17.07;;
6251;SDS011;3159;52.414;9.784;2023-11-21T04:43:12;25.60;;;15.20;;
6251;SDS011;3159;52.414;9.784;2023-11-21T04:45:39;25.17;;;15.57;;
6251;SDS011;3159;52.414;9.784;2023-11-21T04:48:06;26.53;;;15.27;;
6251;SDS011;3159;52.414;9.784;2023-11-21T04:50:33;25.07;;;15.47;;
6251;SDS011;3159;52.414;9.784;2023-11-21T04:53:00;29.90;;;15.80;;
6251;SDS011;3159;52.414;9.784;2023-11-21T04:55:27;25.60;;;15.30;;
6251;SDS011;3159;52.414;9.784;2023-11-21T04:57:55;25.87;;;15.27;;
6251;SDS011;3159;52.414;9.784;2023-11-21T05:00:22;24.50;;;14.37;;
6251;SDS011;3159;52.414;9.784;2023-11-21T05:02:49;25.97;;;14.70;;
6251;SDS011;3159;52.414;9.784;2023-11-21T05:05:16;23.57;;;14.70;;
6251;SDS011;3159;52.414;9.784;2023-11-21T05:07:44;23.00;;;14.23;;
6251;SDS011;3159;52.414;9.784;2023-11-21T05:10:11;21.27;;;14.00;;
6251;SDS011;3159;52.414;9.784;2023-11-21T05:12:39;18.87;;;13.10;;
6251;SDS011;3159;52.414;9.784;2023-11-21T05:15:08;20.03;;;13.00;;
6251;SDS011;3159;52.414;9.784;2023-11-21T05:17:35;17.13;;;12.33;;
6251;SDS011;3159;52.414;9.784;2023-11-21T05:20:04;19.00;;;12.27;;
6251;SDS011;3159;52.414;9.784;2023-11-21T05:22:33;19.23;;;12.23;;
6251;SDS011;3159;52.414;9.784;2023-11-21T05:25:00;17.53;;;11.30;;
6251;SDS011;3159;52.414;9.784;2023-11-21T05:27:28;17.50;;;11.33;;
6251;SDS011;3159;52.414;9.784;2023-11-21T05:29:55;16.83;;;10.87;;
6251;SDS011;3159;52.414;9.784;2023-11-21T05:32:24;16.07;;;11.77;;
6251;SDS011;3159;52.414;9.784;2023-11-21T05:34:51;16.43;;;11.60;;
6251;SDS011;3159;52.414;9.784;2023-11-21T05:37:18;15.87;;;11.07;;
6251;SDS011;3159;52.414;9.784;2023-11-21T05:39:45;16.00;;;11.57;;
6251;SDS011;3159;52.414;9.784;2023-11-21T05:42:12;17.03;;;11.10;;
6251;SDS011;3159;52.414;9.784;2023-11-21T05:44:40;15.73;;;11.37;;
6251;SDS011;3159;52.414;9.784;2023-11-21T05:47:09;14.73;;;10.53;;
6251;SDS011;3159;52.414;9.784;2023-11-21T05:49:37;16.67;;;11.03;;
6251;SDS011;3159;52.414;9.784;2023-11-21T05:52:04;15.47;;;10.87;;
6251;SDS011;3159;52.414;9.784;2023-11-21T05:54:31;16.23;;;11.00;;
6251;SDS011;3159;52.414;9.784;2023-11-21T05:56:58;15.03;;;9.63;;
6251;SDS011;3159;52.414;9.784;2023-11-21T05:59:26;12.13;;;9.13;;
6251;SDS011;3159;52.414;9.784;2023-11-21T06:01:52;13.03;;;9.23;;
6251;SDS011;3159;52.414;9.784;2023-11-21T06:04:19;13.10;;;8.93;;
6251;SDS011;3159;52.414;9.784;2023-11-21T06:06:50;11.93;;;9.23;;
6251;SDS011;3159;52.414;9.784;2023-11-21T06:09:17;13.53;;;9.50;;
6251;SDS011;3159;52.414;9.784;2023-11-21T06:11:44;11.43;;;8.63;;
6251;SDS011;3159;52.414;9.784;2023-11-21T06:14:11;11.93;;;8.60;;
6251;SDS011;3159;52.414;9.784;2023-11-21T06:16:38;9.63;;;7.40;;
6251;SDS011;3159;52.414;9.784;2023-11-21T06:19:05;9.37;;;7.10;;
6251;SDS011;3159;52.414;9.784;2023-11-21T06:21:32;9.80;;;7.20;;
6251;SDS011;3159;52.414;9.784;2023-11-21T06:24:01;10.30;;;7.03;;
6251;SDS011;3159;52.414;9.784;2023-11-21T06:26:28;8.73;;;7.00;;
6251;SDS011;3159;52.414;9.784;2023-11-21T06:28:56;7.90;;;5.93;;
6251;SDS011;3159;52.414;9.784;2023-11-21T06:31:23;7.43;;;4.93;;
6251;SDS011;3159;52.414;9.784;2023-11-21T06:33:50;5.80;;;3.50;;
6251;SDS011;3159;52.414;9.784;2023-11-21T06:36:17;3.80;;;3.03;;
6251;SDS011;3159;52.414;9.784;2023-11-21T06:38:44;5.27;;;3.37;;
6251;SDS011;3159;52.414;9.784;2023-11-21T06:41:13;5.93;;;3.47;;
6251;SDS011;3159;52.414;9.784;2023-11-21T06:43:41;6.83;;;4.37;;
6251;SDS011;3159;52.414;9.784;2023-11-21T06:46:10;6.07;;;4.17;;
6251;SDS011;3159;52.414;9.784;2023-11-21T06:48:39;5.20;;;3.50;;
6251;SDS011;3159;52.414;9.784;2023-11-21T06:51:06;6.20;;;3.63;;
6251;SDS011;3159;52.414;9.784;2023-11-21T06:53:33;5.00;;;3.60;;
6251;SDS011;3159;52.414;9.784;2023-11-21T06:56:00;5.47;;;3.97;;
6251;SDS011;3159;52.414;9.784;2023-11-21T06:58:28;6.03;;;4.40;;
6251;SDS011;3159;52.414;9.784;2023-11-21T07:00:55;6.77;;;4.17;;
6251;SDS011;3159;52.414;9.784;2023-11-21T07:03:23;5.57;;;3.93;;
6251;SDS011;3159;52.414;9.784;2023-11-21T07:05:51;5.33;;;3.93;;
6251;SDS011;3159;52.414;9.784;2023-11-21T07:08:18;8.17;;;4.57;;
6251;SDS011;3159;52.414;9.784;2023-11-21T07:10:44;5.13;;;4.13;;
6251;SDS011;3159;52.414;9.784;2023-11-21T07:13:12;4.70;;;3.90;;
6251;SDS011;3159;52.414;9.784;2023-11-21T07:15:40;6.43;;;3.90;;
6251;SDS011;3159;52.414;9.784;2023-11-21T07:18:08;4.10;;;3.70;;
6251;SDS011;3159;52.414;9.784;2023-11-21T07:20:35;4.73;;;3.73;;
6251;SDS011;3159;52.414;9.784;2023-11-21T07:23:02;6.03;;;3.77;;
6251;SDS011;3159;52.414;9.784;2023-11-21T07:25:29;5.50;;;3.63;;
6251;SDS011;3159;52.414;9.784;2023-11-21T07:27:56;5.23;;;3.37;;
6251;SDS011;3159;52.414;9.784;2023-11-21T07:30:23;5.27;;;3.60;;
6251;SDS011;3159;52.414;9.784;2023-11-21T07:32:51;4.70;;;3.70;;
6251;SDS011;3159;52.414;9.784;2023-11-21T07:35:18;5.70;;;3.83;;
6251;SDS011;3159;52.414;9.784;2023-11-21T07:37:45;5.83;;;4.00;;
6251;SDS011;3159;52.414;9.784;2023-11-21T07:40:13;5.00;;;3.90;;
6251;SDS011;3159;52.414;9.784;2023-11-21T07:42:41;4.73;;;4.00;;
6251;SDS011;3159;52.414;9.784;2023-11-21T07:45:08;5.37;;;3.93;;
6251;SDS011;3159;52.414;9.784;2023-11-21T07:47:36;5.50;;;4.27;;
6251;SDS011;3159;52.414;9.784;2023-11-21T07:50:06;5.30;;;4.10;;
6251;SDS011;3159;52.414;9.784;2023-11-21T07:52:34;5.40;;;4.80;;
6251;SDS011;3159;52.414;9.784;2023-11-21T07:55:01;6.93;;;5.23;;
6251;SDS011;3159;52.414;9.784;2023-11-21T07:57:28;6.10;;;4.80;;
6251;SDS011;3159;52.414;9.784;2023-11-21T07:59:55;6.23;;;5.13;;
6251;SDS011;3159;52.414;9.784;2023-11-21T08:02:22;6.43;;;5.50;;
6251;SDS011;3159;52.414;9.784;2023-11-21T08:04:49;6.57;;;5.50;;
6251;SDS011;3159;52.414;9.784;2023-11-21T08:07:18;7.50;;;5.53;;
6251;SDS011;3159;52.414;9.784;2023-11-21T08:09:44;7.57;;;6.23;;
6251;SDS011;3159;52.414;9.784;2023-11-21T08:12:14;7.20;;;5.77;;
6251;SDS011;3159;52.414;9.784;2023-11-21T08:14:41;7.73;;;5.97;;
6251;SDS011;3159;52.414;9.784;2023-11-21T08:17:09;9.13;;;6.47;;
6251;SDS011;3159;52.414;9.784;2023-11-21T08:19:36;7.57;;;6.00;;
6251;SDS011;3159;52.414;9.784;2023-11-21T08:22:03;9.77;;;6.73;;
6251;SDS011;3159;52.414;9.784;2023-11-21T08:24:34;9.83;;;6.87;;
6251;SDS011;3159;52.414;9.784;2023-11-21T08:27:00;8.07;;;6.47;;
6251;SDS011;3159;52.414;9.784;2023-11-21T08:29:29;8.73;;;6.33;;
6251;SDS011;3159;52.414;9.784;2023-11-21T08:31:56;9.90;;;6.70;;
6251;SDS011;3159;52.414;9.784;2023-11-21T08:34:23;8.53;;;6.30;;
6251;SDS011;3159;52.414;9.784;2023-11-21T08:36:50;8.53;;;6.20;;
6251;SDS011;3159;52.414;9.784;2023-11-21T08:39:17;8.60;;;6.30;;
6251;SDS011;3159;52.414;9.784;2023-11-21T08:41:45;11.77;;;6.87;;
6251;SDS011;3159;52.414;9.784;2023-11-21T08:44:13;9.23;;;6.90;;
6251;SDS011;3159;52.414;9.784;2023-11-21T08:46:41;6.87;;;5.57;;
6251;SDS011;3159;52.414;9.784;2023-11-21T08:49:10;10.27;;;6.70;;
6251;SDS011;3159;52.414;9.784;2023-11-21T08:51:37;7.93;;;5.73;;
6251;SDS011;3159;52.414;9.784;2023-11-21T08:54:04;9.67;;;6.40;;
6251;SDS011;3159;52.414;9.784;2023-11-21T08:56:33;8.60;;;6.20;;
6251;SDS011;3159;52.414;9.784;2023-11-21T08:59:01;9.87;;;6.23;;
6251;SDS011;3159;52.414;9.784;2023-11-21T09:01:28;9.77;;;6.80;;
6251;SDS011;3159;52.414;9.784;2023-11-21T09:03:56;9.07;;;6.70;;
6251;SDS011;3159;52.414;9.784;2023-11-21T09:06:23;8.30;;;6.07;;
6251;SDS011;3159;52.414;9.784;2023-11-21T09:08:50;7.70;;;6.50;;
6251;SDS011;3159;52.414;9.784;2023-11-21T09:11:16;8.53;;;6.70;;
6251;SDS011;3159;52.414;9.784;2023-11-21T09:13:43;7.70;;;6.10;;
6251;SDS011;3159;52.414;9.784;2023-11-21T09:16:13;11.40;;;6.57;;
6251;SDS011;3159;52.414;9.784;2023-11-21T09:18:40;7.97;;;6.10;;
6251;SDS011;3159;52.414;9.784;2023-11-21T09:21:07;8.17;;;5.93;;
6251;SDS011;3159;52.414;9.784;2023-11-21T09:23:34;7.53;;;6.17;;
6251;SDS011;3159;52.414;9.784;2023-11-21T09:26:01;9.10;;;6.27;;
6251;SDS011;3159;52.414;9.784;2023-11-21T09:28:28;6.90;;;5.50;;
6251;SDS011;3159;52.414;9.784;2023-11-21T09:30:55;8.23;;;5.73;;
6251;SDS011;3159;52.414;9.784;2023-11-21T09:33:23;8.07;;;5.63;;
6251;SDS011;3159;52.414;9.784;2023-11-21T09:35:50;7.70;;;5.57;;
6251;SDS011;3159;52.414;9.784;2023-11-21T09:38:17;8.43;;;6.00;;
6251;SDS011;3159;52.414;9.784;2023-11-21T09:40:44;7.73;;;5.27;;
6251;SDS011;3159;52.414;9.784;2023-11-21T09:43:14;7.17;;;5.67;;
6251;SDS011;3159;52.414;9.784;2023-11-21T09:45:44;7.63;;;5.50;;
6251;SDS011;3159;52.414;9.784;2023-11-21T09:48:13;7.07;;;5.10;;
6251;SDS011;3159;52.414;9.784;2023-11-21T09:50:43;6.90;;;5.20;;
6251;SDS011;3159;52.414;9.784;2023-11-21T09:53:12;8.77;;;5.00;;
6251;SDS011;3159;52.414;9.784;2023-11-21T09:55:44;8.27;;;4.90;;
6251;SDS011;3159;52.414;9.784;2023-11-21T09:58:11;5.70;;;4.83;;
6251;SDS011;3159;52.414;9.784;2023-11-21T10:00:39;7.33;;;5.20;;
6251;SDS011;3159;52.414;9.784;2023-11-21T10:03:07;7.60;;;4.93;;
6251;SDS011;3159;52.414;9.784;2023-11-21T10:05:34;6.80;;;4.77;;
6251;SDS011;3159;52.414;9.784;2023-11-21T10:08:03;8.50;;;5.53;;
6251;SDS011;3159;52.414;9.784;2023-11-21T10:10:33;5.77;;;4.67;;
6251;SDS011;3159;52.414;9.784;2023-11-21T10:13:01;6.53;;;5.47;;
6251;SDS011;3159;52.414;9.784;2023-11-21T10:15:31;6.67;;;4.87;;
6251;SDS011;3159;52.414;9.784;2023-11-21T10:18:01;6.53;;;5.00;;
6251;SDS011;3159;52.414;9.784;2023-11-21T10:20:29;5.93;;;4.70;;
6251;SDS011;3159;52.414;9.784;2023-11-21T10:22:58;6.67;;;4.33;;
6251;SDS011;3159;52.414;9.784;2023-11-21T10:25:29;5.63;;;4.40;;
6251;SDS011;3159;52.414;9.784;2023-11-21T10:27:57;5.30;;;4.10;;
6251;SDS011;3159;52.414;9.784;2023-11-21T10:30:31;4.90;;;4.33;;
6251;SDS011;3159;52.414;9.784;2023-11-21T10:33:02;7.03;;;4.13;;
6251;SDS011;3159;52.414;9.784;2023-11-21T10:35:38;5.27;;;4.60;;
6251;SDS011;3159;52.414;9.784;2023-11-21T10:38:16;6.20;;;4.53;;
6251;SDS011;3159;52.414;9.784;2023-11-21T10:40:43;4.87;;;4.03;;
6251;SDS011;3159;52.414;9.784;2023-11-21T10:43:11;5.03;;;4.40;;
6251;SDS011;3159;52.414;9.784;2023-11-21T10:45:40;4.67;;;4.00;;
6251;SDS011;3159;52.414;9.784;2023-11-21T10:48:07;5.00;;;4.30;;
6251;SDS011;3159;52.414;9.784;2023-11-21T10:50:36;5.60;;;4.53;;
6251;SDS011;3159;52.414;9.784;2023-11-21T10:53:03;5.97;;;4.70;;
6251;SDS011;3159;52.414;9.784;2023-11-21T10:55:31;6.60;;;4.50;;
6251;SDS011;3159;52.414;9.784;2023-11-21T10:58:00;5.80;;;4.50;;
6251;SDS011;3159;52.414;9.784;2023-11-21T11:00:29;6.20;;;4.90;;
6251;SDS011;3159;52.414;9.784;2023-11-21T11:02:56;5.57;;;4.30;;
6251;SDS011;3159;52.414;9.784;2023-11-21T11:05:24;5.07;;;4.27;;
6251;SDS011;3159;52.414;9.784;2023-11-21T11:08:04;5.63;;;4.43;;
6251;SDS011;3159;52.414;9.784;2023-11-21T11:10:31;7.80;;;4.57;;
6251;SDS011;3159;52.414;9.784;2023-11-21T11:12:59;5.70;;;4.43;;
6251;SDS011;3159;52.414;9.784;2023-11-21T11:15:26;4.13;;;3.73;;
6251;SDS011;3159;52.414;9.784;2023-11-21T11:17:54;4.27;;;3.87;;
6251;SDS011;3159;52.414;9.784;2023-11-21T11:20:22;4.93;;;4.17;;
6251;SDS011;3159;52.414;9.784;2023-11-21T11:22:55;4.57;;;3.97;;
6251;SDS011;3159;52.414;9.784;2023-11-21T11:25:35;4.30;;;3.73;;
6251;SDS011;3159;52.414;9.784;2023-11-21T11:28:17;4.67;;;4.03;;
6251;SDS011;3159;52.414;9.784;2023-11-21T11:30:50;6.37;;;4.30;;
6251;SDS011;3159;52.414;9.784;2023-11-21T11:33:30;4.80;;;3.93;;
6251;SDS011;3159;52.414;9.784;2023-11-21T11:36:03;6.23;;;4.00;;
6251;SDS011;3159;52.414;9.784;2023-11-21T11:38:34;5.23;;;4.03;;
6251;SDS011;3159;52.414;9.784;2023-11-21T11:41:02;4.80;;;4.07;;
6251;SDS011;3159;52.414;9.784;2023-11-21T11:43:31;5.70;;;4.43;;
6251;SDS011;3159;52.414;9.784;2023-11-21T11:46:05;4.57;;;3.60;;
6251;SDS011;3159;52.414;9.784;2023-11-21T11:48:34;4.40;;;3.80;;
6251;SDS011;3159;52.414;9.784;2023-11-21T11:51:04;4.27;;;3.57;;
6251;SDS011;3159;52.414;9.784;2023-11-21T11:53:37;4.03;;;3.60;;
6251;SDS011;3159;52.414;9.784;2023-11-21T11:56:22;4.37;;;3.70;;
6251;SDS011;3159;52.414;9.784;2023-11-21T11:58:53;5.23;;;3.40;;
6251;SDS011;3159;52.414;9.784;2023-11-21T12:01:21;4.27;;;2.97;;
6251;SDS011;3159;52.414;9.784;2023-11-21T12:06:56;3.73;;;3.20;;
6251;SDS011;3159;52.414;9.784;2023-11-21T12:09:27;4.60;;;3.60;;
6251;SDS011;3159;52.414;9.784;2023-11-21T12:11:56;4.23;;;3.17;;
6251;SDS011;3159;52.414;9.784;2023-11-21T12:14:24;4.27;;;3.47;;
6251;SDS011;3159;52.414;9.784;2023-11-21T12:16:51;3.23;;;2.93;;
6251;SDS011;3159;52.414;9.784;2023-11-21T12:19:19;4.07;;;3.10;;
6251;SDS011;3159;52.414;9.784;2023-11-21T12:21:47;3.90;;;3.20;;
6251;SDS011;3159;52.414;9.784;2023-11-21T12:24:15;6.53;;;3.47;;
6251;SDS011;3159;52.414;9.784;2023-11-21T12:26:42;3.57;;;3.10;;
6251;SDS011;3159;52.414;9.784;2023-11-21T12:29:10;5.07;;;3.53;;
6251;SDS011;3159;52.414;9.784;2023-11-21T12:31:38;4.37;;;3.67;;
6251;SDS011;3159;52.414;9.784;2023-11-21T12:34:07;5.03;;;3.73;;
6251;SDS011;3159;52.414;9.784;2023-11-21T12:36:36;6.47;;;3.50;;
6251;SDS011;3159;52.414;9.784;2023-11-21T12:39:03;4.23;;;3.60;;
6251;SDS011;3159;52.414;9.784;2023-11-21T12:41:31;4.53;;;3.47;;
6251;SDS011;3159;52.414;9.784;2023-11-21T12:43:57;4.83;;;3.00;;
6251;SDS011;3159;52.414;9.784;2023-11-21T12:46:24;4.33;;;3.63;;
6251;SDS011;3159;52.414;9.784;2023-11-21T12:48:55;3.47;;;3.17;;
6251;SDS011;3159;52.414;9.784;2023-11-21T12:51:23;3.87;;;3.27;;
6251;SDS011;3159;52.414;9.784;2023-11-21T12:53:50;3.70;;;3.37;;
6251;SDS011;3159;52.414;9.784;2023-11-21T12:56:17;5.10;;;3.40;;
6251;SDS011;3159;52.414;9.784;2023-11-21T12:58:48;3.97;;;3.23;;
6251;SDS011;3159;52.414;9.784;2023-11-21T13:01:15;4.87;;;3.93;;
6251;SDS011;3159;52.414;9.784;2023-11-21T13:03:45;5.20;;;3.37;;
6251;SDS011;3159;52.414;9.784;2023-11-21T13:06:17;3.93;;;3.47;;
6251;SDS011;3159;52.414;9.784;2023-11-21T13:08:49;4.90;;;3.73;;
6251;SDS011;3159;52.414;9.784;2023-11-21T13:11:16;3.93;;;3.47;;
6251;SDS011;3159;52.414;9.784;2023-11-21T13:13:43;5.33;;;3.87;;
6251;SDS011;3159;52.414;9.784;2023-11-21T13:16:10;5.13;;;3.70;;
6251;SDS011;3159;52.414;9.784;2023-11-21T13:18:38;5.23;;;4.27;;
6251;SDS011;3159;52.414;9.784;2023-11-21T13:21:07;6.70;;;3.87;;
6251;SDS011;3159;52.414;9.784;2023-11-21T13:23:40;4.57;;;3.70;;
6251;SDS011;3159;52.414;9.784;2023-11-21T13:26:08;5.63;;;3.70;;
6251;SDS011;3159;52.414;9.784;2023-11-21T13:28:35;4.10;;;3.70;;
6251;SDS011;3159;52.414;9.784;2023-11-21T13:31:03;4.37;;;3.90;;
6251;SDS011;3159;52.414;9.784;2023-11-21T13:33:40;4.40;;;4.00;;
6251;SDS011;3159;52.414;9.784;2023-11-21T13:36:12;5.03;;;4.07;;
6251;SDS011;3159;52.414;9.784;2023-11-21T13:38:42;4.27;;;3.70;;
6251;SDS011;3159;52.414;9.784;2023-11-21T13:41:11;4.70;;;3.80;;
6251;SDS011;3159;52.414;9.784;2023-11-21T13:43:39;5.17;;;3.60;;
6251;SDS011;3159;52.414;9.784;2023-11-21T13:46:09;3.67;;;3.27;;
6251;SDS011;3159;52.414;9.784;2023-11-21T13:48:40;5.07;;;3.20;;
6251;SDS011;3159;52.414;9.784;2023-11-21T13:51:08;4.43;;;2.93;;
6251;SDS011;3159;52.414;9.784;2023-11-21T13:53:43;4.37;;;3.33;;
6251;SDS011;3159;52.414;9.784;2023-11-21T13:56:13;3.97;;;3.10;;
6251;SDS011;3159;52.414;9.784;2023-11-21T13:58:44;7.20;;;3.13;;
6251;SDS011;3159;52.414;9.784;2023-11-21T14:01:15;3.27;;;2.93;;
6251;SDS011;3159;52.414;9.784;2023-11-21T14:04:02;3.27;;;2.90;;
6251;SDS011;3159;52.414;9.784;2023-11-21T14:06:37;5.23;;;2.60;;
6251;SDS011;3159;52.414;9.784;2023-11-21T14:09:14;4.53;;;2.83;;
6251;SDS011;3159;52.414;9.784;2023-11-21T14:11:48;3.20;;;2.70;;
6251;SDS011;3159;52.414;9.784;2023-11-21T14:14:16;3.70;;;3.13;;
6251;SDS011;3159;52.414;9.784;2023-11-21T14:16:43;4.73;;;3.27;;
6251;SDS011;3159;52.414;9.784;2023-11-21T14:19:10;3.10;;;2.80;;
6251;SDS011;3159;52.414;9.784;2023-11-21T14:21:40;3.90;;;2.80;;
6251;SDS011;3159;52.414;9.784;2023-11-21T14:24:09;3.20;;;2.83;;
6251;SDS011;3159;52.414;9.784;2023-11-21T14:26:39;4.97;;;3.47;;
6251;SDS011;3159;52.414;9.784;2023-11-21T14:29:06;3.37;;;3.07;;
6251;SDS011;3159;52.414;9.784;2023-11-21T14:31:34;4.00;;;3.60;;
6251;SDS011;3159;52.414;9.784;2023-11-21T14:34:01;3.83;;;3.07;;
6251;SDS011;3159;52.414;9.784;2023-11-21T14:36:28;3.37;;;3.03;;
6251;SDS011;3159;52.414;9.784;2023-11-21T14:38:55;6.93;;;3.33;;
6251;SDS011;3159;52.414;9.784;2023-11-21T14:41:22;5.80;;;3.47;;
6251;SDS011;3159;52.414;9.784;2023-11-21T14:43:51;5.20;;;3.97;;
6251;SDS011;3159;52.414;9.784;2023-11-21T14:46:19;4.73;;;3.50;;
6251;SDS011;3159;52.414;9.784;2023-11-21T14:48:46;5.70;;;3.20;;
6251;SDS011;3159;52.414;9.784;2023-11-21T14:51:23;3.33;;;3.03;;
6251;SDS011;3159;52.414;9.784;2023-11-21T14:53:56;5.17;;;3.00;;
6251;SDS011;3159;52.414;9.784;2023-11-21T14:56:26;5.43;;;2.97;;
6251;SDS011;3159;52.414;9.784;2023-11-21T14:58:57;3.97;;;3.07;;
6251;SDS011;3159;52.414;9.784;2023-11-21T15:01:30;3.83;;;3.43;;
6251;SDS011;3159;52.414;9.784;2023-11-21T15:04:09;4.77;;;3.23;;
6251;SDS011;3159;52.414;9.784;2023-11-21T15:06:47;5.00;;;3.27;;
6251;SDS011;3159;52.414;9.784;2023-11-21T15:09:13;4.63;;;3.17;;
6251;SDS011;3159;52.414;9.784;2023-11-21T15:12:00;2.80;;;2.60;;
6251;SDS011;3159;52.414;9.784;2023-11-21T15:14:36;3.30;;;2.80;;